createdAt,value
2017-08-31T00:00:27.369Z,20.90
2017-08-31T00:02:54.921Z,20.80
2017-08-31T00:05:22.443Z,20.70
2017-08-31T00:07:49.990Z,20.70
2017-08-31T00:10:17.531Z,20.70
2017-08-31T00:12:45.095Z,20.70
2017-08-31T00:15:12.640Z,20.60
2017-08-31T00:17:40.194Z,20.60
2017-08-31T00:20:07.726Z,20.70
2017-08-31T00:22:35.226Z,20.70
2017-08-31T00:25:03.046Z,20.80
2017-08-31T00:27:31.398Z,20.80
2017-08-31T00:29:58.955Z,20.80
2017-08-31T00:32:26.475Z,20.70
2017-08-31T00:34:54.065Z,20.70
2017-08-31T00:37:21.605Z,20.80
2017-08-31T00:39:49.146Z,20.80
2017-08-31T00:42:16.743Z,20.80
2017-08-31T00:44:44.229Z,20.80
2017-08-31T00:47:11.823Z,20.80
2017-08-31T00:49:39.362Z,20.80
2017-08-31T00:52:06.909Z,20.80
2017-08-31T00:54:34.454Z,20.80
2017-08-31T00:57:01.946Z,20.70
2017-08-31T00:59:29.520Z,20.70
2017-08-31T01:01:57.031Z,20.60
2017-08-31T01:04:24.595Z,20.60
2017-08-31T01:06:52.122Z,20.60
2017-08-31T01:09:19.683Z,20.60
2017-08-31T01:11:47.203Z,20.60
2017-08-31T01:14:14.766Z,20.70
2017-08-31T01:16:42.311Z,20.70
2017-08-31T01:19:09.866Z,20.70
2017-08-31T01:21:37.407Z,20.60
2017-08-31T01:24:04.952Z,20.60
2017-08-31T01:26:32.683Z,20.60
2017-08-31T01:29:00.211Z,20.60
2017-08-31T01:31:27.761Z,20.60
2017-08-31T01:33:55.323Z,20.50
2017-08-31T01:36:22.867Z,20.50
2017-08-31T01:38:50.404Z,20.50
2017-08-31T01:41:17.956Z,20.40
2017-08-31T01:43:45.520Z,20.40
2017-08-31T01:46:13.057Z,20.40
2017-08-31T01:48:40.585Z,20.40
2017-08-31T01:51:08.154Z,20.40
2017-08-31T01:53:35.707Z,20.40
2017-08-31T01:56:03.269Z,20.40
2017-08-31T01:58:30.794Z,20.50
2017-08-31T02:00:58.316Z,20.60
2017-08-31T02:03:25.856Z,20.60
2017-08-31T02:05:53.390Z,20.70
2017-08-31T02:08:20.952Z,20.60
2017-08-31T02:10:48.517Z,20.50
2017-08-31T02:13:16.083Z,20.40
2017-08-31T02:15:44.071Z,20.20
2017-08-31T02:18:11.645Z,19.90
2017-08-31T02:20:40.735Z,19.80
2017-08-31T02:23:11.716Z,19.60
2017-08-31T02:25:39.270Z,19.50
2017-08-31T02:28:06.844Z,19.40
2017-08-31T02:30:34.438Z,19.30
2017-08-31T02:33:09.549Z,19.30
2017-08-31T02:35:37.061Z,19.20
2017-08-31T02:38:05.992Z,19.10
2017-08-31T02:40:33.538Z,19.00
2017-08-31T02:43:05.622Z,18.90
2017-08-31T02:45:33.218Z,18.80
2017-08-31T02:48:00.791Z,18.80
2017-08-31T02:50:28.346Z,18.70
2017-08-31T02:52:56.821Z,18.70
2017-08-31T02:55:24.351Z,18.70
2017-08-31T02:57:51.866Z,18.70
2017-08-31T03:00:19.400Z,18.80
2017-08-31T03:02:47.007Z,18.80
2017-08-31T03:05:14.596Z,19.00
2017-08-31T03:07:42.200Z,19.10
2017-08-31T03:10:09.777Z,19.20
2017-08-31T03:12:37.332Z,19.20
2017-08-31T03:15:04.896Z,19.20
2017-08-31T03:17:32.420Z,19.20
2017-08-31T03:20:00.235Z,19.20
2017-08-31T03:22:28.378Z,19.20
2017-08-31T03:24:55.976Z,19.30
2017-08-31T03:27:23.537Z,19.30
2017-08-31T03:29:51.721Z,19.30
2017-08-31T03:32:19.285Z,19.30
2017-08-31T03:34:46.802Z,19.30
2017-08-31T03:37:14.414Z,19.30
2017-08-31T03:39:41.971Z,19.20
2017-08-31T03:42:09.496Z,19.20
2017-08-31T03:44:37.322Z,19.20
2017-08-31T03:47:04.869Z,19.20
2017-08-31T03:49:32.407Z,19.20
2017-08-31T03:52:00.005Z,19.20
2017-08-31T03:54:27.583Z,19.10
2017-08-31T03:56:55.300Z,19.20
2017-08-31T03:59:22.838Z,19.20
2017-08-31T04:01:50.388Z,19.30
2017-08-31T04:04:17.879Z,19.30
2017-08-31T04:06:45.438Z,19.30
2017-08-31T04:09:13.064Z,19.40
2017-08-31T04:11:40.606Z,19.50
2017-08-31T04:14:08.163Z,19.50
2017-08-31T04:16:35.723Z,19.50
2017-08-31T04:19:03.317Z,19.50
2017-08-31T04:21:30.852Z,19.50
2017-08-31T04:23:58.434Z,19.50
2017-08-31T04:26:26.926Z,19.50
2017-08-31T04:28:54.494Z,19.50
2017-08-31T04:31:22.055Z,19.50
2017-08-31T04:33:49.569Z,19.40
2017-08-31T04:36:17.118Z,19.40
2017-08-31T04:38:44.691Z,19.40
2017-08-31T04:41:12.250Z,19.30
2017-08-31T04:43:39.761Z,19.30
2017-08-31T04:46:07.373Z,19.20
2017-08-31T04:48:34.948Z,19.10
2017-08-31T04:51:02.485Z,19.10
2017-08-31T04:53:29.952Z,19.10
2017-08-31T04:55:57.709Z,19.10
2017-08-31T04:58:25.234Z,19.10
2017-08-31T05:00:52.754Z,19.10
2017-08-31T05:03:20.280Z,19.10
2017-08-31T05:05:47.841Z,19.10
2017-08-31T05:08:15.438Z,19.20
2017-08-31T05:10:43.110Z,19.20
2017-08-31T05:13:10.672Z,19.20
2017-08-31T05:15:38.212Z,19.20
2017-08-31T05:18:05.772Z,19.30
2017-08-31T05:20:33.915Z,19.50
2017-08-31T05:23:01.760Z,19.50
2017-08-31T05:25:29.240Z,19.70
2017-08-31T05:27:56.766Z,19.70
2017-08-31T05:30:24.281Z,19.80
2017-08-31T05:32:51.868Z,19.90
2017-08-31T05:35:19.428Z,19.90
2017-08-31T05:37:46.960Z,19.70
2017-08-31T05:40:14.527Z,19.70
2017-08-31T05:42:42.270Z,19.60
2017-08-31T05:45:09.854Z,19.50
2017-08-31T05:47:37.416Z,19.50
2017-08-31T05:50:04.945Z,19.60
2017-08-31T05:52:32.452Z,19.70
2017-08-31T05:55:00.008Z,19.70
2017-08-31T05:57:27.565Z,19.90
2017-08-31T05:59:55.112Z,19.90
2017-08-31T06:02:22.648Z,20.00
2017-08-31T06:04:50.154Z,20.10
2017-08-31T06:07:17.708Z,20.20
2017-08-31T06:09:45.241Z,20.30
2017-08-31T06:12:12.778Z,20.50
2017-08-31T06:14:40.327Z,20.60
2017-08-31T06:17:07.958Z,20.90
2017-08-31T06:19:35.513Z,21.20
2017-08-31T06:22:03.061Z,21.60
2017-08-31T06:24:30.575Z,22.60
2017-08-31T06:26:58.138Z,23.60
2017-08-31T06:29:25.640Z,24.50
2017-08-31T06:31:53.187Z,24.90
2017-08-31T06:34:20.715Z,25.20
2017-08-31T06:36:48.287Z,25.70
2017-08-31T06:39:15.818Z,25.60
2017-08-31T06:41:43.358Z,25.20
2017-08-31T06:44:10.893Z,24.80
2017-08-31T06:46:38.464Z,24.50
2017-08-31T06:49:06.016Z,24.10
2017-08-31T06:51:33.557Z,24.20
2017-08-31T06:54:01.103Z,24.20
2017-08-31T06:56:28.627Z,24.30
2017-08-31T06:58:56.162Z,25.20
2017-08-31T07:01:23.711Z,26.90
2017-08-31T07:03:51.251Z,27.20
2017-08-31T07:06:18.789Z,27.50
2017-08-31T07:08:46.315Z,27.90
2017-08-31T07:11:13.856Z,26.80
2017-08-31T07:13:41.409Z,25.60
2017-08-31T07:16:08.964Z,24.90
2017-08-31T07:18:36.503Z,24.40
2017-08-31T07:21:04.059Z,24.20
2017-08-31T07:23:31.646Z,24.70
2017-08-31T07:25:59.228Z,25.30
2017-08-31T07:28:27.830Z,25.40
2017-08-31T07:30:55.377Z,24.90
2017-08-31T07:33:22.950Z,24.50
2017-08-31T07:35:50.483Z,24.30
2017-08-31T07:38:18.044Z,24.20
2017-08-31T07:40:45.578Z,24.30
2017-08-31T07:43:13.118Z,24.20
2017-08-31T07:45:40.601Z,24.70
2017-08-31T07:48:08.151Z,26.90
2017-08-31T07:50:35.697Z,29.30
2017-08-31T07:53:03.292Z,31.40
2017-08-31T07:55:30.874Z,32.80
2017-08-31T07:57:58.393Z,33.80
2017-08-31T08:00:25.951Z,34.40
2017-08-31T08:02:53.495Z,34.70
2017-08-31T08:05:21.052Z,34.80
2017-08-31T08:07:48.612Z,34.80
2017-08-31T08:10:16.168Z,35.10
2017-08-31T08:12:43.721Z,35.60
2017-08-31T08:15:11.285Z,36.10
2017-08-31T08:17:38.807Z,36.90
2017-08-31T08:20:06.331Z,36.70
2017-08-31T08:22:33.886Z,37.60
2017-08-31T08:25:01.664Z,37.10
2017-08-31T08:27:29.209Z,37.00
2017-08-31T08:29:56.703Z,36.70
2017-08-31T08:32:24.218Z,37.10
2017-08-31T08:34:51.796Z,35.90
2017-08-31T08:37:19.381Z,35.80
2017-08-31T08:39:46.896Z,35.80
2017-08-31T08:42:14.440Z,35.50
2017-08-31T08:44:41.952Z,36.00
2017-08-31T08:47:09.441Z,36.70
2017-08-31T08:49:36.964Z,37.20
2017-08-31T08:52:04.476Z,37.50
2017-08-31T08:54:32.039Z,38.20
2017-08-31T08:56:59.589Z,38.70
2017-08-31T08:59:27.165Z,39.00
2017-08-31T09:01:54.681Z,38.70
2017-08-31T09:04:22.230Z,38.40
2017-08-31T09:06:49.770Z,38.50
2017-08-31T09:09:17.308Z,38.90
2017-08-31T09:11:44.876Z,38.70
2017-08-31T09:14:12.417Z,38.70
2017-08-31T09:16:39.963Z,38.30
2017-08-31T09:19:07.530Z,38.20
2017-08-31T09:21:35.048Z,38.10
2017-08-31T09:24:02.583Z,38.40
2017-08-31T09:26:30.160Z,37.40
2017-08-31T09:28:57.710Z,37.30
2017-08-31T09:31:25.247Z,37.50
2017-08-31T09:33:52.738Z,37.80
2017-08-31T09:36:20.286Z,38.00
2017-08-31T09:38:47.806Z,37.80
2017-08-31T09:41:15.371Z,37.40
2017-08-31T09:43:42.908Z,37.10
2017-08-31T09:46:10.443Z,36.80
2017-08-31T09:48:37.975Z,37.10
2017-08-31T09:51:05.521Z,37.50
2017-08-31T09:53:33.075Z,37.70
2017-08-31T09:56:00.602Z,37.80
2017-08-31T09:58:28.138Z,38.60
2017-08-31T10:00:55.674Z,39.00
2017-08-31T10:03:23.194Z,39.50
2017-08-31T10:05:50.738Z,39.10
2017-08-31T10:08:18.291Z,38.50
2017-08-31T10:10:45.844Z,39.00
2017-08-31T13:24:44.378Z,23.50
2017-08-31T13:27:12.167Z,23.30
2017-08-31T13:29:39.901Z,23.10
2017-08-31T13:32:07.528Z,22.90
2017-08-31T13:34:35.118Z,22.80
2017-08-31T13:37:02.746Z,22.70
2017-08-31T13:39:30.367Z,22.80
2017-08-31T13:41:58.011Z,22.90
2017-08-31T13:44:25.633Z,22.90
2017-08-31T13:46:53.252Z,22.60
2017-08-31T13:49:20.897Z,22.40
2017-08-31T13:51:48.503Z,22.20
2017-08-31T13:54:16.075Z,22.30
2017-08-31T13:56:43.683Z,22.30
2017-08-31T13:59:11.322Z,22.30
2017-08-31T14:01:39.810Z,22.30
2017-08-31T14:04:07.690Z,22.20
2017-08-31T14:06:35.507Z,22.20
2017-08-31T14:09:03.161Z,22.20
2017-08-31T14:11:30.853Z,22.30
2017-08-31T14:13:58.476Z,22.30
2017-08-31T14:16:26.090Z,22.50
2017-08-31T14:18:53.629Z,22.60
2017-08-31T14:21:21.206Z,22.70
2017-08-31T14:23:48.786Z,22.80
2017-08-31T14:26:16.553Z,22.90
2017-08-31T14:28:44.130Z,22.90
2017-08-31T14:31:11.858Z,23.00
2017-08-31T14:33:39.450Z,23.00
2017-08-31T14:36:07.080Z,23.20
2017-08-31T14:38:34.649Z,23.10
2017-08-31T14:41:02.621Z,23.10
2017-08-31T14:43:30.331Z,23.00
2017-08-31T14:45:58.059Z,23.00
2017-08-31T14:48:25.749Z,22.90
2017-08-31T14:50:53.350Z,22.70
2017-08-31T14:53:22.491Z,22.50
2017-08-31T14:55:50.061Z,22.40
2017-08-31T14:58:17.721Z,22.20
2017-08-31T15:00:46.167Z,22.00
2017-08-31T15:03:14.740Z,21.90
2017-08-31T15:05:42.353Z,21.80
2017-08-31T15:08:10.010Z,21.70
2017-08-31T15:10:38.098Z,21.50
2017-08-31T15:13:05.823Z,21.40
2017-08-31T15:15:34.018Z,21.30
2017-08-31T15:18:01.619Z,21.30
2017-08-31T15:20:29.908Z,21.20
2017-08-31T15:22:57.606Z,21.10
2017-08-31T15:25:25.828Z,21.10
2017-08-31T15:27:53.456Z,21.10
2017-08-31T15:30:21.035Z,21.10
2017-08-31T15:32:48.943Z,21.10
2017-08-31T15:35:16.632Z,21.00
2017-08-31T15:37:44.282Z,20.90
2017-08-31T15:40:11.864Z,20.70
2017-08-31T15:42:39.511Z,20.60
2017-08-31T15:45:07.034Z,20.50
2017-08-31T15:47:34.604Z,20.50
2017-08-31T15:50:02.138Z,20.50
2017-08-31T15:52:29.729Z,20.50
2017-08-31T15:54:57.309Z,20.50
2017-08-31T15:57:24.870Z,20.40
2017-08-31T15:59:52.468Z,20.30
2017-08-31T16:02:20.122Z,20.20
2017-08-31T16:04:47.715Z,20.30
2017-08-31T16:07:15.261Z,20.40
2017-08-31T16:09:42.895Z,20.40
2017-08-31T16:12:10.785Z,20.50
2017-08-31T16:14:38.322Z,20.40
2017-08-31T16:17:05.939Z,20.30
2017-08-31T16:19:33.505Z,20.20
2017-08-31T16:22:01.261Z,20.20
2017-08-31T16:24:28.912Z,20.10
2017-08-31T16:26:56.493Z,19.90
2017-08-31T16:29:25.837Z,19.90
2017-08-31T16:49:10.132Z,20.00
2017-08-31T16:51:37.906Z,20.00
2017-08-31T16:54:05.466Z,19.80
2017-08-31T16:56:33.082Z,19.70
2017-08-31T16:59:00.649Z,19.70
2017-08-31T17:01:28.284Z,19.60
2017-08-31T17:03:55.951Z,19.60
2017-08-31T17:06:23.457Z,19.50
2017-08-31T17:08:51.048Z,19.50
2017-08-31T17:11:21.104Z,19.40
2017-08-31T17:13:48.696Z,19.30
2017-08-31T17:16:16.278Z,19.10
2017-08-31T17:18:43.901Z,18.90
2017-08-31T17:21:11.630Z,18.80
2017-08-31T17:23:39.357Z,18.70
2017-08-31T17:26:07.086Z,18.70
2017-08-31T17:28:34.697Z,18.60
2017-08-31T17:31:02.300Z,18.40
2017-08-31T17:33:29.948Z,18.40
2017-08-31T17:35:57.882Z,18.30
2017-08-31T17:38:26.427Z,18.30
2017-08-31T17:40:54.121Z,18.20
2017-08-31T17:43:21.804Z,18.20
2017-08-31T17:45:49.387Z,18.20
2017-08-31T17:48:16.957Z,18.10
2017-08-31T17:50:44.553Z,18.10
2017-08-31T17:53:12.169Z,18.10
2017-08-31T17:55:40.042Z,18.10
2017-08-31T17:58:07.624Z,18.10
2017-08-31T18:00:35.209Z,18.10
2017-08-31T18:03:02.834Z,18.20
2017-08-31T18:05:30.377Z,18.20
2017-08-31T18:07:59.140Z,18.10
2017-08-31T18:10:26.729Z,18.10
2017-08-31T18:12:54.315Z,18.10
2017-08-31T18:15:21.888Z,18.10
2017-08-31T18:17:49.447Z,18.10
2017-08-31T18:20:17.036Z,18.10
2017-08-31T18:22:44.642Z,18.10
2017-08-31T18:25:12.190Z,18.10
2017-08-31T18:27:40.448Z,18.10
2017-08-31T18:30:08.998Z,18.00
2017-08-31T18:32:37.199Z,18.00
2017-08-31T18:35:04.777Z,18.00
2017-08-31T18:37:32.365Z,18.00
2017-08-31T18:40:00.558Z,18.10
2017-08-31T18:42:29.079Z,18.10
2017-08-31T18:44:56.661Z,18.00
2017-08-31T18:47:24.271Z,17.80
2017-08-31T18:49:51.947Z,17.50
2017-08-31T18:52:19.589Z,17.40
2017-08-31T18:54:47.201Z,17.30
2017-08-31T18:57:14.818Z,17.20
2017-08-31T18:59:42.429Z,17.20
2017-08-31T19:02:10.082Z,17.20
2017-08-31T19:04:38.560Z,17.10
2017-08-31T19:07:09.083Z,17.10
2017-08-31T19:09:36.771Z,17.00
2017-08-31T19:12:04.715Z,17.00
2017-08-31T19:14:32.328Z,17.00
2017-08-31T19:17:00.548Z,17.00
2017-08-31T19:19:28.213Z,17.00
2017-08-31T19:21:55.829Z,16.90
2017-08-31T19:24:23.453Z,16.90
2017-08-31T19:26:51.163Z,16.80
2017-08-31T19:29:18.885Z,16.80
2017-08-31T19:31:47.122Z,16.80
2017-08-31T19:34:14.852Z,16.70
2017-08-31T19:36:43.518Z,16.60
2017-08-31T19:39:11.829Z,16.60
2017-08-31T19:41:39.441Z,16.60
2017-08-31T19:44:07.076Z,16.60
2017-08-31T19:46:34.804Z,16.60
2017-08-31T19:49:02.562Z,16.60
2017-08-31T19:51:30.257Z,16.60
2017-08-31T19:53:57.967Z,16.60
2017-08-31T19:56:25.557Z,16.60
2017-08-31T19:58:53.232Z,16.60
2017-08-31T20:01:21.060Z,16.60
2017-08-31T20:03:49.402Z,16.60
2017-08-31T20:06:17.100Z,16.50
2017-08-31T20:08:44.680Z,16.60
2017-08-31T20:11:12.245Z,16.60
2017-08-31T20:13:40.421Z,16.60
2017-08-31T20:16:08.027Z,16.60
2017-08-31T20:18:35.673Z,16.60
2017-08-31T20:21:03.268Z,16.60
2017-08-31T20:23:30.932Z,16.70
2017-08-31T20:25:58.518Z,16.70
2017-08-31T20:28:26.264Z,16.80
2017-08-31T20:30:53.858Z,16.80
2017-08-31T20:33:21.433Z,16.90
2017-08-31T20:35:49.119Z,17.00
2017-08-31T20:38:16.696Z,17.00
2017-08-31T20:40:44.413Z,17.00
2017-08-31T20:43:12.026Z,16.90
2017-08-31T20:45:39.589Z,16.80
2017-08-31T20:48:07.146Z,16.70
2017-08-31T20:50:34.766Z,16.80
2017-08-31T20:53:03.146Z,16.70
2017-08-31T20:55:30.720Z,16.70
2017-08-31T20:57:58.360Z,16.70
2017-08-31T21:00:26.853Z,16.60
2017-08-31T21:02:54.482Z,16.60
2017-08-31T21:05:22.081Z,16.60
2017-08-31T21:07:49.627Z,16.60
2017-08-31T21:10:17.197Z,16.50
2017-08-31T21:12:45.653Z,16.40
2017-08-31T21:15:13.218Z,16.50
2017-08-31T21:17:40.915Z,16.50
2017-08-31T21:20:08.525Z,16.50
2017-08-31T21:22:36.036Z,16.40
2017-08-31T21:25:03.676Z,16.40
2017-08-31T21:27:31.292Z,16.50
2017-08-31T21:29:58.849Z,16.50
2017-08-31T21:32:26.462Z,16.50
2017-08-31T21:34:54.078Z,16.40
2017-08-31T21:37:21.667Z,16.30
2017-08-31T21:39:49.276Z,16.30
2017-08-31T21:42:16.962Z,16.30
2017-08-31T21:44:44.598Z,16.30
2017-08-31T21:47:12.151Z,16.30
2017-08-31T21:49:39.764Z,16.30
2017-08-31T21:52:07.477Z,16.30
2017-08-31T21:54:35.061Z,16.30
2017-08-31T21:57:02.644Z,16.30
2017-08-31T21:59:30.205Z,16.30
2017-08-31T22:01:57.899Z,16.20
2017-08-31T22:04:25.505Z,16.20
2017-08-31T22:06:53.230Z,16.20
2017-08-31T22:09:20.759Z,16.20
2017-08-31T22:11:48.377Z,16.20
2017-08-31T22:14:15.867Z,16.20
2017-08-31T22:16:43.429Z,16.20
2017-08-31T22:19:10.974Z,16.10
2017-08-31T22:21:38.541Z,16.10
2017-08-31T22:24:06.117Z,16.10
2017-08-31T22:26:34.386Z,16.00
2017-08-31T22:29:01.883Z,16.00
2017-08-31T22:31:29.478Z,15.90
2017-08-31T22:33:57.622Z,15.80
2017-08-31T22:36:25.176Z,15.80
2017-08-31T22:38:52.806Z,15.70
2017-08-31T22:41:20.359Z,15.70
2017-08-31T22:43:47.924Z,15.70
2017-08-31T22:46:15.482Z,15.60
2017-08-31T22:48:43.079Z,15.60
2017-08-31T22:51:10.659Z,15.60
2017-08-31T22:53:38.167Z,15.70
2017-08-31T22:56:05.743Z,15.70
2017-08-31T22:58:43.361Z,15.70
2017-08-31T23:01:10.918Z,15.70
2017-08-31T23:03:38.480Z,15.60
2017-08-31T23:06:06.028Z,15.60
2017-08-31T23:08:33.567Z,15.70
2017-08-31T23:11:01.090Z,15.70
2017-08-31T23:13:28.615Z,15.60
2017-08-31T23:15:56.226Z,15.60
2017-08-31T23:18:23.780Z,15.60
2017-08-31T23:20:51.336Z,15.60
2017-08-31T23:23:18.871Z,15.60
2017-08-31T23:25:46.440Z,15.60
2017-08-31T23:28:14.008Z,15.70
2017-08-31T23:30:42.445Z,15.60
2017-08-31T23:33:10.820Z,15.50
2017-08-31T23:35:38.454Z,15.50
2017-08-31T23:38:06.017Z,15.50
2017-08-31T23:40:33.572Z,15.50
2017-08-31T23:43:01.114Z,15.50
2017-08-31T23:45:28.640Z,15.50
2017-08-31T23:47:56.260Z,15.40
2017-08-31T23:50:23.820Z,15.40
2017-08-31T23:52:51.367Z,15.50
2017-08-31T23:55:18.912Z,15.50
2017-08-31T23:57:46.500Z,15.50
